»·PEaware :: SWA311 KTPA-KATL

SWA311 :: KTPA-KATL

FLIGHT INFORMATION

Flight Status: Arrived
Operator:
Southwest Airlines
More flights by this operator :: More flights under this callsign
Pilot: Jamyson D. (13674)
Aircraft: BOEING 737-800
(B738)
More flights by this aircraft type
Origin: KTPA Tampa Intl
United States
Destination: KATL Hartsfield-Jackson Atlanta
United States
More flights between these airports :: More routes between these airports
Route: ENDED7 SZW DAWWN BEORN GNDLF2
File this flight plan on PilotEdge
Remarks:
Altitude:
(Current/Filed)
36,000ft
Speed:
(Current/Filed)
442kts
Departed: 11-Feb-18 11:42 PM
Arrived: 12-Feb-18 12:49 AM
Distance/Time
Traveled:
354nm/1:07
Distance/Time
To Go:
Arrived

Flight Plot

Page will automatically refresh every two minutes.

Flight plan parsing failed; only flown route is shown


Map Options




Map Legend


Flown Route
Filed Route
Departure Airport
Arrival Airport
Navaid (VOR, NDB)
Fix

Horizontal Profiles

Position Reports

Time Latitude Longitude Heading Altitude Ground
Speed
11-Feb-18 23:46 27.969183 -82.530071 181 21ft 21kts
11-Feb-18 23:47 27.964518 -82.529969 117 17ft 4kts
11-Feb-18 23:48 27.965388 -82.528920 1 17ft 10kts
11-Feb-18 23:49 27.986807 -82.528236 0 102ft 182kts
11-Feb-18 23:50 28.046150 -82.532659 356 2309ft 260kts
11-Feb-18 23:51 28.118341 -82.536383 356 6171ft 271kts
11-Feb-18 23:52 28.187176 -82.570769 329 9549ft 284kts
11-Feb-18 23:53 28.264607 -82.617129 329 11266ft 357kts
11-Feb-18 23:54 28.354301 -82.670842 329 14388ft 376kts
11-Feb-18 23:55 28.447764 -82.726931 329 17310ft 391kts
11-Feb-18 23:56 28.544759 -82.785268 328 19889ft 405kts
11-Feb-18 23:57 28.645430 -82.845949 328 22186ft 419kts
11-Feb-18 23:58 28.749336 -82.908721 328 24258ft 431kts
11-Feb-18 23:59 28.856213 -82.973441 328 26128ft 442kts
12-Feb-18 00:00 28.965413 -83.039727 328 27821ft 452kts
12-Feb-18 00:01 29.077346 -83.107803 326 29209ft 466kts
12-Feb-18 00:02 29.189967 -83.176484 326 30716ft 471kts
12-Feb-18 00:03 29.304620 -83.246564 326 32477ft 466kts
12-Feb-18 00:04 29.418119 -83.316124 325 34021ft 462kts
12-Feb-18 00:05 29.530397 -83.385120 325 35384ft 459kts
12-Feb-18 00:06 29.641818 -83.453750 325 36292ft 452kts
12-Feb-18 00:07 29.752788 -83.522336 325 36290ft 457kts
12-Feb-18 00:08 29.864387 -83.591461 325 36290ft 456kts
12-Feb-18 00:09 29.973886 -83.659460 325 36290ft 456kts
12-Feb-18 00:10 30.085156 -83.728719 325 36257ft 456kts
12-Feb-18 00:11 30.193720 -83.796468 325 36237ft 456kts
12-Feb-18 00:12 30.304150 -83.865560 325 36239ft 456kts
12-Feb-18 00:13 30.413380 -83.934077 325 36240ft 456kts
12-Feb-18 00:14 30.524509 -84.003968 325 36244ft 456kts
12-Feb-18 00:15 30.632958 -84.072353 325 36254ft 456kts
12-Feb-18 00:16 30.742684 -84.141722 325 36246ft 456kts
12-Feb-18 00:17 30.851503 -84.210697 325 36247ft 456kts
12-Feb-18 00:18 30.961787 -84.280740 324 36247ft 455kts
12-Feb-18 00:19 31.067619 -84.348119 323 36245ft 453kts
12-Feb-18 00:20 31.172854 -84.415364 323 36237ft 453kts
12-Feb-18 00:21 31.280772 -84.484503 323 36238ft 453kts
12-Feb-18 00:22 31.390793 -84.555175 323 36233ft 453kts
12-Feb-18 00:23 31.501740 -84.624356 329 36230ft 459kts
12-Feb-18 00:24 31.615265 -84.680230 328 36236ft 459kts
12-Feb-18 00:25 31.728224 -84.736589 328 36230ft 459kts
12-Feb-18 00:26 31.844622 -84.794921 328 36217ft 459kts
12-Feb-18 00:27 31.961141 -84.852579 329 36217ft 460kts
12-Feb-18 00:28 32.079002 -84.908809 329 36214ft 460kts
12-Feb-18 00:29 32.183563 -84.958923 329 36125ft 450kts
12-Feb-18 00:30 32.282803 -85.006647 329 34108ft 455kts
12-Feb-18 00:31 32.396237 -85.061307 329 31913ft 459kts
12-Feb-18 00:32 32.510651 -85.116526 330 29687ft 446kts
12-Feb-18 00:33 32.621606 -85.170287 330 27502ft 427kts
12-Feb-18 00:34 32.727740 -85.221860 330 25432ft 411kts
12-Feb-18 00:35 32.836255 -85.244386 359 23425ft 419kts
12-Feb-18 00:36 32.947531 -85.231022 360 21395ft 400kts
12-Feb-18 00:37 33.049278 -85.186315 42 19362ft 412kts
12-Feb-18 00:38 33.124719 -85.091007 45 17284ft 402kts
12-Feb-18 00:39 33.190067 -85.006309 45 15420ft 384kts
12-Feb-18 00:40 33.260081 -84.915173 45 13579ft 370kts
12-Feb-18 00:41 33.327997 -84.827181 42 11913ft 354kts
12-Feb-18 00:42 33.398106 -84.746214 42 11334ft 353kts
12-Feb-18 00:43 33.466617 -84.666493 42 10764ft 341kts
12-Feb-18 00:44 33.526644 -84.592957 60 10218ft 299kts
12-Feb-18 00:45 33.536385 -84.496161 91 9177ft 297kts
12-Feb-18 00:46 33.536788 -84.400535 91 7671ft 287kts
12-Feb-18 00:47 33.536891 -84.312280 92 5520ft 264kts
12-Feb-18 00:48 33.536985 -84.228609 91 3355ft 250kts
12-Feb-18 00:49 33.559924 -84.169206 349 3013ft 194kts
12-Feb-18 00:50 33.593996 -84.210972 304 3002ft 188kts
12-Feb-18 00:51 33.619632 -84.251978 304 3033ft 165kts
12-Feb-18 00:52 33.631476 -84.289741 270 2866ft 152kts
12-Feb-18 00:52 33.631812 -84.327286 267 2539ft 154kts
12-Feb-18 00:54 33.631838 -84.385642 268 1603ft 151kts
12-Feb-18 00:54 33.631807 -84.426449 269 1032ft 120kts
12-Feb-18 00:56 33.633597 -84.441876 270 1032ft 22kts
12-Feb-18 00:57 33.633658 -84.447559 303 1032ft 6kts
12-Feb-18 00:58 33.634640 -84.447875 4 1032ft 7kts
12-Feb-18 00:59 33.636619 -84.444772 90 1032ft 21kts
12-Feb-18 00:59 33.636619 -84.437411 82 1032ft 29kts
12-Feb-18 01:00 33.636622 -84.432384 90 1032ft 11kts
12-Feb-18 01:02 33.639718 -84.431337 356 1032ft 21kts
12-Feb-18 01:02 33.640023 -84.431732 277 1032ft 0kts
12-Feb-18 01:04 33.640043 -84.432028 274 1032ft 0kts
12-Feb-18 01:05 33.640043 -84.432028 274 1032ft 0kts
12-Feb-18 01:06 33.640043 -84.432028 274 1032ft 0kts

Navigation Log

Ident Type
Flight plan parsing failed, navigation log unavailable